YBAO weather

Braidwood Airport
New South Wales, Australia

Public forecast

Using degrees Celsius for public forecast. Weather courtesy of forecast.io.

METAR (pilot weather report)

Closest report is Canberra International Airport, 33.2 nm (61.5 km) WNW. Retrieved 2019/03/27 00:00 UTC (4 minutes ago):

YSCB 270000Z AUTO 05007KT 9999 // NCD 17/08 Q1025 NOSIG

TAF (pilot weather forecast)

Forecast is more than 6 hours old.

Closest forecast is Canberra International Airport, 33.2 nm (61.5 km) WNW. Retrieved 2019/03/26 18:00 UTC (6 hours ago):

TAF YSCB 261701Z 2618/2718 15004KT CAVOK FM270000 06008KT CAVOK FM270400 06010KT 9999 SCT040 FM271300 VRB03KT CAVOK